Rauschs, Pennsylvania
Current Conditions -  °F | °C
As of 7:35 PM on Monday 24 Nov 2014 (Local Time) from KHZL Reporting Station
Scattered Clouds Scattered Clouds  
Wind Chill: 59°   Ceiling: Unl
Heat Index: 59°   Visibility: 10mi
Dew Point: 52°   Wind: 9mph
Humidity: 77%   Direction: 160°SSE
Pressure: 29.68"   Gusts: NA
Location:  40.7138°N, 75.9395°W
Report Text: KHZL 250035Z AUTO 16008KT 10SM SCT085 15/11 A2968 RMK AO2
Loading
Personal Weather Stations






























Interactive Weather Map New forecast layout! Learn more

10-Day Weather Forecast

Advertisements
Track Severe Weather on mobile